Time;durP1;ratioP1;P1;durP2;ratioP2;P2;SDS_P1;SDS_P2;PMS_P1;PMS_P2;Temp;Humidity;BMP_temperature;BMP_pressure;BME280_temperature;BME280_humidity;BME280_pressure;Samples;Min_cycle;Max_cycle;Signal;HPM_P1;HPM_P2
2022/11/27 00:00:01;;;;;;;4.82;3.92;;;3.50;99.90;;;;;;5113615;28;20424;-58
2022/11/27 00:02:28;;;;;;;5.07;4.00;;;3.60;99.90;;;;;;5115289;28;20526;-58
2022/11/27 00:04:56;;;;;;;4.60;3.53;;;3.60;99.90;;;;;;5115421;28;20487;-59
2022/11/27 00:07:23;;;;;;;5.83;4.10;;;3.60;99.90;;;;;;5114460;28;20420;-59
2022/11/27 00:09:50;;;;;;;6.13;3.87;;;3.60;99.90;;;;;;5109416;28;21089;-59
2022/11/27 00:12:16;;;;;;;4.85;3.45;;;3.60;99.90;;;;;;5115280;28;20531;-59
2022/11/27 00:14:43;;;;;;;5.00;3.20;;;3.60;99.90;;;;;;5113845;28;20421;-59
2022/11/27 00:17:10;;;;;;;4.18;3.38;;;3.70;99.90;;;;;;5113731;28;20451;-58
2022/11/27 00:19:37;;;;;;;4.37;3.43;;;3.70;99.90;;;;;;5113829;28;20440;-58
2022/11/27 00:22:05;;;;;;;4.15;3.13;;;3.80;99.90;;;;;;5114113;28;20518;-58
2022/11/27 00:24:32;;;;;;;5.15;3.50;;;3.80;99.90;;;;;;5115011;28;20424;-58
2022/11/27 00:26:59;;;;;;;4.57;3.60;;;3.80;99.90;;;;;;5112073;28;20408;-58
2022/11/27 00:29:28;;;;;;;3.63;2.83;;;3.80;99.90;;;;;;5110939;28;20526;-58
2022/11/27 00:31:55;;;;;;;4.63;3.10;;;3.80;99.90;;;;;;5113562;28;20485;-59
2022/11/27 00:34:22;;;;;;;3.78;3.08;;;3.80;99.90;;;;;;5113931;28;20470;-59
2022/11/27 00:36:49;;;;;;;3.70;3.40;;;3.80;99.90;;;;;;5113145;28;20469;-59
2022/11/27 00:39:17;;;;;;;4.25;2.80;;;3.70;99.90;;;;;;5111409;28;20485;-58
2022/11/27 00:41:45;;;;;;;3.38;2.35;;;3.70;99.90;;;;;;5111559;28;20434;-58
2022/11/27 00:44:12;;;;;;;4.45;2.70;;;3.60;99.90;;;;;;5110628;28;20435;-58
2022/11/27 00:46:40;;;;;;;3.90;2.90;;;3.60;99.90;;;;;;5111848;28;20428;-62
2022/11/27 00:49:07;;;;;;;5.00;2.70;;;3.60;99.90;;;;;;5115442;28;20935;-58
2022/11/27 00:51:35;;;;;;;6.47;4.00;;;3.50;99.90;;;;;;5112550;28;20466;-59
2022/11/27 00:54:02;;;;;;;4.82;3.50;;;3.50;99.90;;;;;;5111987;28;20640;-58
2022/11/27 00:56:33;;;;;;;5.13;3.05;;;3.50;99.90;;;;;;5113774;28;20850;-58
2022/11/27 00:59:00;;;;;;;4.35;3.05;;;3.50;99.90;;;;;;5115101;28;20435;-58
2022/11/27 01:01:30;;;;;;;5.23;3.13;;;3.50;99.90;;;;;;5113173;28;20431;-58
2022/11/27 01:03:58;;;;;;;4.95;3.20;;;3.50;99.90;;;;;;5097658;28;20422;-57
2022/11/27 01:06:26;;;;;;;5.00;3.65;;;3.60;99.90;;;;;;5098168;28;20413;-57
2022/11/27 01:08:53;;;;;;;4.82;3.20;;;3.50;99.90;;;;;;5098684;28;20426;-58
2022/11/27 01:11:24;;;;;;;5.95;4.15;;;3.50;99.90;;;;;;5106600;28;20442;-58
2022/11/27 01:13:53;;;;;;;4.50;3.60;;;3.50;99.90;;;;;;5117842;28;20438;-58
2022/11/27 01:16:21;;;;;;;5.90;3.63;;;3.50;99.90;;;;;;5118388;28;20865;-58
2022/11/27 01:18:50;;;;;;;5.55;3.40;;;3.50;99.90;;;;;;5118258;28;20424;-59
2022/11/27 01:21:19;;;;;;;3.85;3.30;;;3.50;99.90;;;;;;5116469;28;20478;-59
2022/11/27 01:23:46;;;;;;;5.53;3.40;;;3.50;99.90;;;;;;5118951;28;20699;-58
2022/11/27 01:26:13;;;;;;;4.65;3.45;;;3.40;99.90;;;;;;5118651;28;20408;-59
2022/11/27 01:28:40;;;;;;;4.27;3.77;;;3.40;99.90;;;;;;5118004;28;20431;-59
2022/11/27 01:31:12;;;;;;;6.55;4.00;;;3.40;99.90;;;;;;5113854;28;20432;-59
2022/11/27 01:33:39;;;;;;;4.47;3.63;;;3.50;99.90;;;;;;5118994;28;20423;-59
2022/11/27 01:36:08;;;;;;;5.68;3.50;;;3.40;99.90;;;;;;5117480;28;20420;-59
2022/11/27 01:38:35;;;;;;;4.35;3.67;;;3.50;99.90;;;;;;5116962;28;20428;-58
2022/11/27 01:41:04;;;;;;;7.63;4.20;;;3.50;99.90;;;;;;5114957;28;20515;-59
2022/11/27 01:43:38;;;;;;;4.25;3.35;;;3.50;99.90;;;;;;5118077;28;20514;-59
2022/11/27 01:46:11;;;;;;;4.63;3.00;;;3.50;99.90;;;;;;5117802;28;20420;-60
2022/11/27 01:48:38;;;;;;;4.15;3.13;;;3.50;99.90;;;;;;5116288;28;20436;-59
2022/11/27 01:51:05;;;;;;;5.72;3.05;;;3.50;99.90;;;;;;5116872;28;20811;-59
2022/11/27 01:53:33;;;;;;;4.80;3.17;;;3.50;99.90;;;;;;5116821;28;20422;-59
2022/11/27 01:56:01;;;;;;;6.25;3.90;;;3.50;99.90;;;;;;5117198;28;20416;-59
2022/11/27 01:58:30;;;;;;;6.60;3.78;;;3.50;99.90;;;;;;5113205;28;20436;-59
2022/11/27 02:00:57;;;;;;;4.90;3.95;;;3.40;99.90;;;;;;5117360;28;20412;-58
2022/11/27 02:03:25;;;;;;;7.53;4.13;;;3.30;99.90;;;;;;5117375;28;20423;-59
2022/11/27 02:05:52;;;;;;;5.63;3.45;;;3.30;99.90;;;;;;5117236;28;20840;-59
2022/11/27 02:08:19;;;;;;;5.53;3.80;;;3.30;99.90;;;;;;5116064;28;20427;-59
2022/11/27 02:10:49;;;;;;;5.50;3.80;;;3.20;99.90;;;;;;5117314;28;20427;-59
2022/11/27 02:13:23;;;;;;;5.65;3.67;;;3.10;99.90;;;;;;5116018;28;20455;-59
2022/11/27 02:15:57;;;;;;;5.23;3.50;;;3.00;99.90;;;;;;5113282;28;20435;-58
2022/11/27 02:18:31;;;;;;;5.38;3.90;;;3.00;99.90;;;;;;5117372;28;20523;-58
2022/11/27 02:21:04;;;;;;;5.28;3.50;;;3.00;99.90;;;;;;5076381;28;20415;-58
2022/11/27 02:24:03;;;;;;;5.38;3.38;;;3.00;99.90;;;;;;5076882;28;20423;-59
2022/11/27 02:27:00;;;;;;;4.95;2.60;;;3.00;99.90;;;;;;5066164;28;20453;-58
2022/11/27 02:29:31;;;;;;;4.70;2.80;;;3.00;99.90;;;;;;5068137;28;20427;-59
2022/11/27 02:32:06;;;;;;;4.50;2.95;;;3.10;99.90;;;;;;5076563;28;20423;-58
2022/11/27 02:34:38;;;;;;;4.88;3.03;;;3.10;99.90;;;;;;5075258;28;20426;-59
2022/11/27 02:37:12;;;;;;;5.60;3.17;;;3.20;99.90;;;;;;5075869;28;20439;-59
2022/11/27 02:39:43;;;;;;;3.28;2.33;;;3.20;99.90;;;;;;5075239;28;20734;-59
2022/11/27 02:42:18;;;;;;;4.25;3.15;;;3.10;99.90;;;;;;5076535;28;20427;-59
2022/11/27 02:44:50;;;;;;;3.22;2.45;;;3.00;99.90;;;;;;5076034;28;20441;-59
2022/11/27 02:47:18;;;;;;;4.28;2.92;;;2.90;99.90;;;;;;5073004;28;20435;-58
2022/11/27 02:49:46;;;;;;;4.88;2.65;;;2.90;99.90;;;;;;5074868;28;20415;-59
2022/11/27 02:52:17;;;;;;;4.07;2.90;;;2.90;99.90;;;;;;5075744;28;20454;-59
2022/11/27 02:54:48;;;;;;;4.15;2.65;;;2.80;99.90;;;;;;5073905;28;20435;-59
2022/11/27 02:57:16;;;;;;;3.95;2.83;;;2.80;99.90;;;;;;5074953;28;20428;-59
2022/11/27 02:59:44;;;;;;;4.37;2.73;;;2.90;99.90;;;;;;5075206;28;20493;-59
2022/11/27 03:02:18;;;;;;;5.47;3.40;;;2.80;99.90;;;;;;5074783;28;20723;-59
2022/11/27 03:04:55;;;;;;;4.32;3.05;;;2.80;99.90;;;;;;5072148;28;20493;-59
2022/11/27 03:07:30;;;;;;;5.15;2.72;;;2.90;99.90;;;;;;5074803;28;20423;-59
2022/11/27 03:10:00;;;;;;;4.45;2.85;;;2.80;99.90;;;;;;5075784;28;20510;-59
2022/11/27 03:12:27;;;;;;;3.50;2.80;;;2.90;99.90;;;;;;5074990;28;20430;-59
2022/11/27 03:14:54;;;;;;;4.28;2.60;;;2.90;99.90;;;;;;5073731;28;20435;-59
2022/11/27 03:17:36;;;;;;;3.90;2.60;;;2.90;99.90;;;;;;5069821;28;20443;-59
2022/11/27 03:20:09;;;;;;;5.40;2.20;;;2.90;99.90;;;;;;5099780;28;20519;-60
2022/11/27 03:22:36;;;;;;;3.90;2.27;;;3.00;99.90;;;;;;5113134;28;20428;-59
2022/11/27 03:25:04;;;;;;;3.28;1.88;;;3.00;99.90;;;;;;5113449;28;20416;-59
2022/11/27 03:27:35;;;;;;;3.95;2.10;;;3.00;99.90;;;;;;5111553;28;20786;-59
2022/11/27 03:30:06;;;;;;;3.50;2.10;;;3.00;99.90;;;;;;5112513;28;20422;-59
2022/11/27 03:32:35;;;;;;;4.10;2.20;;;3.00;99.90;;;;;;5111274;28;20836;-59
2022/11/27 03:35:02;;;;;;;3.10;1.93;;;2.90;99.90;;;;;;5115092;28;20412;-59
2022/11/27 03:37:29;;;;;;;4.80;2.10;;;2.90;99.90;;;;;;5115642;28;20685;-60
2022/11/27 03:39:56;;;;;;;3.42;2.03;;;2.80;99.90;;;;;;5113915;28;20418;-58
2022/11/27 03:42:27;;;;;;;3.50;1.95;;;2.80;99.90;;;;;;5112462;28;20803;-58
2022/11/27 03:45:01;;;;;;;3.88;2.40;;;2.80;99.90;;;;;;5116366;28;20416;-57
2022/11/27 03:47:41;;;;;;;5.03;2.50;;;2.80;99.90;;;;;;5115010;28;20416;-59
2022/11/27 03:50:21;;;;;;;3.87;2.03;;;2.80;99.90;;;;;;5115743;28;20864;-59
2022/11/27 03:52:54;;;;;;;5.38;2.55;;;2.70;99.90;;;;;;5115089;28;20435;-59
2022/11/27 03:55:25;;;;;;;4.35;2.20;;;2.70;99.90;;;;;;5114440;28;20415;-59
2022/11/27 03:57:59;;;;;;;3.38;1.98;;;2.70;99.90;;;;;;5115392;28;20428;-59
2022/11/27 04:00:30;;;;;;;2.70;1.80;;;2.80;99.90;;;;;;5113566;28;20524;-59
2022/11/27 04:02:58;;;;;;;4.05;2.15;;;2.80;99.90;;;;;;5112569;28;20438;-58
2022/11/27 04:05:25;;;;;;;3.63;1.70;;;2.80;99.90;;;;;;5115477;28;20832;-59
2022/11/27 04:07:51;;;;;;;4.53;1.70;;;2.80;99.90;;;;;;5115225;28;20420;-58
2022/11/27 04:10:18;;;;;;;3.92;2.33;;;2.80;99.90;;;;;;5110691;28;20434;-59
2022/11/27 04:12:45;;;;;;;3.00;1.60;;;2.80;99.90;;;;;;5115607;28;20521;-58
2022/11/27 04:15:13;;;;;;;3.70;1.70;;;2.90;99.90;;;;;;5114710;28;20420;-58
2022/11/27 04:17:40;;;;;;;3.35;1.70;;;2.90;99.90;;;;;;5115664;28;20454;-58
2022/11/27 04:20:10;;;;;;;2.20;1.50;;;2.80;99.90;;;;;;5110632;28;20432;-58
2022/11/27 04:22:37;;;;;;;2.95;1.50;;;2.90;99.90;;;;;;5115549;28;20839;-58
2022/11/27 04:25:05;;;;;;;4.10;2.13;;;2.90;99.90;;;;;;5115231;28;20514;-59
2022/11/27 04:27:31;;;;;;;2.00;1.50;;;3.00;99.90;;;;;;5115407;28;20416;-59
2022/11/27 04:29:58;;;;;;;2.00;1.25;;;3.20;99.90;;;;;;5095936;28;20869;-59
2022/11/27 04:32:25;;;;;;;3.13;1.50;;;3.30;99.90;;;;;;5106270;28;20443;-59
2022/11/27 04:34:52;;;;;;;4.07;1.45;;;3.30;99.90;;;;;;5108655;28;20846;-58
2022/11/27 04:37:20;;;;;;;3.30;1.50;;;3.30;99.90;;;;;;5119698;28;20527;-58
2022/11/27 04:39:47;;;;;;;2.58;1.50;;;3.20;99.90;;;;;;5118655;28;20426;-59
2022/11/27 04:42:14;;;;;;;3.55;1.20;;;3.10;99.90;;;;;;5119858;28;20843;-60
2022/11/27 04:44:40;;;;;;;2.40;1.20;;;3.00;99.90;;;;;;5117562;28;20444;-59
2022/11/27 04:47:07;;;;;;;3.40;1.40;;;3.00;99.90;;;;;;5119197;28;20424;-58
2022/11/27 04:49:34;;;;;;;2.10;1.30;;;3.20;99.90;;;;;;5119023;28;20408;-59
2022/11/27 04:52:01;;;;;;;2.60;1.40;;;3.30;99.90;;;;;;5116952;28;20454;-59
2022/11/27 04:54:29;;;;;;;2.70;1.40;;;3.30;99.90;;;;;;5116588;28;20866;-60
2022/11/27 04:56:56;;;;;;;2.60;1.30;;;3.30;99.90;;;;;;5118000;28;20423;-59
2022/11/27 04:59:23;;;;;;;3.10;1.23;;;3.30;99.90;;;;;;5118437;28;20422;-58
2022/11/27 05:01:50;;;;;;;1.83;1.33;;;3.30;99.90;;;;;;5118861;28;20419;-58
2022/11/27 05:04:17;;;;;;;1.70;1.30;;;3.30;99.90;;;;;;5117178;28;20431;-59
2022/11/27 05:06:44;;;;;;;2.58;1.30;;;3.30;99.90;;;;;;5118486;28;20503;-59
2022/11/27 05:09:11;;;;;;;3.07;1.40;;;3.30;99.90;;;;;;5118812;28;20412;-59
2022/11/27 05:11:39;;;;;;;1.85;1.30;;;3.20;99.90;;;;;;5118494;28;20423;-59
2022/11/27 05:16:51;;;;;;;2.30;1.20;;;3.10;99.90;;;;;;5118849;28;20430;-59
2022/11/27 05:19:20;;;;;;;2.10;1.20;;;2.90;99.90;;;;;;5117121;28;20419;-58
2022/11/27 05:21:47;;;;;;;2.67;1.63;;;3.00;99.90;;;;;;5119045;28;20472;-58
2022/11/27 05:24:15;;;;;;;3.60;1.40;;;3.10;99.90;;;;;;5117436;28;20423;-59
2022/11/27 05:26:43;;;;;;;2.20;1.35;;;3.20;99.90;;;;;;5117566;28;20438;-59
2022/11/27 05:29:11;;;;;;;2.05;1.10;;;3.20;99.90;;;;;;5117023;28;20776;-59
2022/11/27 05:31:38;;;;;;;2.85;1.80;;;3.10;99.90;;;;;;5118206;28;20849;-59
2022/11/27 05:34:05;;;;;;;3.17;1.50;;;3.20;99.90;;;;;;5118524;28;20421;-58
2022/11/27 05:36:33;;;;;;;1.60;1.20;;;3.20;99.90;;;;;;5115745;28;20440;-60
2022/11/27 05:39:00;;;;;;;2.10;1.70;;;3.20;99.90;;;;;;5117838;28;20447;-59
2022/11/27 05:41:28;;;;;;;3.85;1.40;;;3.20;99.90;;;;;;5118437;28;20419;-59
2022/11/27 05:43:56;;;;;;;2.20;1.40;;;3.10;99.90;;;;;;5117085;28;20508;-58
2022/11/27 05:46:23;;;;;;;2.83;1.40;;;3.10;99.90;;;;;;5117285;28;20412;-58
2022/11/27 05:48:50;;;;;;;2.47;1.40;;;3.30;99.90;;;;;;5117367;28;20904;-58
2022/11/27 05:51:17;;;;;;;3.40;1.30;;;3.30;99.90;;;;;;5117914;28;20412;-59
2022/11/27 05:53:45;;;;;;;2.45;1.20;;;3.40;99.90;;;;;;5116515;28;20424;-59
2022/11/27 05:56:14;;;;;;;3.05;1.40;;;3.30;99.90;;;;;;5118592;28;20412;-59
2022/11/27 05:58:42;;;;;;;3.33;1.33;;;3.30;99.90;;;;;;5116316;28;20428;-59
2022/11/27 06:01:13;;;;;;;2.30;1.20;;;3.20;99.90;;;;;;5117934;28;20499;-58
2022/11/27 06:03:40;;;;;;;2.42;1.20;;;3.20;99.90;;;;;;5118087;28;20453;-58
2022/11/27 06:06:07;;;;;;;3.35;2.28;;;3.20;99.90;;;;;;5117866;28;20784;-59
2022/11/27 06:08:36;;;;;;;1.70;1.42;;;3.00;99.90;;;;;;5115309;28;20428;-59
2022/11/27 06:11:07;;;;;;;2.13;1.30;;;3.00;99.90;;;;;;5115245;28;20498;-59
2022/11/27 06:13:34;;;;;;;3.15;1.80;;;2.90;99.90;;;;;;5116701;28;20451;-59
2022/11/27 06:16:05;;;;;;;2.40;1.25;;;2.80;99.90;;;;;;5116667;28;20528;-58
2022/11/27 06:18:34;;;;;;;2.42;1.40;;;2.90;99.90;;;;;;5113575;28;20434;-59
2022/11/27 06:21:01;;;;;;;4.40;1.65;;;2.90;99.90;;;;;;5116311;28;20832;-60
2022/11/27 06:23:28;;;;;;;2.65;1.40;;;2.80;99.90;;;;;;5115493;28;20431;-59
2022/11/27 06:25:54;;;;;;;2.55;1.40;;;2.80;99.90;;;;;;5116755;28;20444;-59
2022/11/27 06:28:21;;;;;;;3.35;1.50;;;2.70;99.90;;;;;;5115217;28;20428;-59
2022/11/27 06:30:48;;;;;;;2.92;1.50;;;2.70;99.90;;;;;;5113232;28;20422;-59
2022/11/27 06:33:15;;;;;;;4.20;1.30;;;2.70;99.90;;;;;;5113461;28;20431;-59
2022/11/27 06:35:43;;;;;;;2.50;1.50;;;2.80;99.90;;;;;;5115233;28;20412;-59
2022/11/27 06:38:10;;;;;;;2.10;1.40;;;2.80;99.90;;;;;;5114789;28;20846;-59
2022/11/27 06:40:36;;;;;;;3.60;1.80;;;2.80;99.90;;;;;;5112980;28;20420;-59
2022/11/27 06:43:03;;;;;;;3.30;1.40;;;2.80;99.90;;;;;;5113618;28;20419;-59
2022/11/27 06:45:30;;;;;;;2.23;1.40;;;3.00;99.90;;;;;;5114404;28;20416;-60
2022/11/27 06:47:58;;;;;;;2.45;1.40;;;3.10;99.90;;;;;;5114290;28;20438;-59
2022/11/27 06:50:25;;;;;;;3.00;1.50;;;3.00;99.90;;;;;;5114199;28;20419;-59
2022/11/27 06:52:53;;;;;;;2.78;1.40;;;2.90;99.90;;;;;;5114987;28;20432;-60
2022/11/27 06:55:20;;;;;;;2.35;1.30;;;2.90;99.90;;;;;;5115857;28;20510;-58
2022/11/27 06:57:49;;;;;;;1.80;1.33;;;2.90;99.90;;;;;;5115733;28;20873;-59
2022/11/27 07:00:17;;;;;;;2.83;1.47;;;2.90;99.90;;;;;;5115732;28;20704;-59
2022/11/27 07:02:44;;;;;;;3.20;1.60;;;3.00;99.90;;;;;;5116194;28;20839;-58
2022/11/27 07:05:11;;;;;;;3.67;2.10;;;3.00;99.90;;;;;;5115346;28;20419;-58
2022/11/27 07:07:38;;;;;;;2.08;1.50;;;3.10;99.90;;;;;;5116560;28;20515;-59
2022/11/27 07:10:07;;;;;;;2.30;1.45;;;3.10;99.90;;;;;;5116644;28;20811;-59
2022/11/27 07:12:34;;;;;;;2.00;1.30;;;3.20;99.90;;;;;;5115324;28;20857;-59
2022/11/27 07:15:01;;;;;;;2.83;1.60;;;3.10;99.90;;;;;;5116617;28;20794;-59
2022/11/27 07:17:28;;;;;;;3.88;1.90;;;3.10;99.90;;;;;;5115353;28;20430;-59
2022/11/27 07:19:54;;;;;;;3.30;1.45;;;3.00;99.90;;;;;;5116289;28;20430;-58
2022/11/27 07:22:21;;;;;;;2.23;1.27;;;3.00;99.90;;;;;;5116583;28;20511;-58
2022/11/27 07:24:48;;;;;;;2.10;1.30;;;3.10;99.90;;;;;;5115136;28;20715;-59
2022/11/27 07:27:16;;;;;;;3.50;1.20;;;3.20;99.90;;;;;;5116132;28;20420;-60
2022/11/27 07:29:43;;;;;;;2.07;1.27;;;3.20;99.90;;;;;;5115461;28;20750;-59
2022/11/27 07:32:10;;;;;;;2.60;1.40;;;3.40;99.90;;;;;;5115051;28;20428;-59
2022/11/27 07:34:37;;;;;;;2.72;1.45;;;3.40;99.90;;;;;;5114628;28;20420;-59
2022/11/27 07:37:03;;;;;;;3.00;1.42;;;3.40;99.90;;;;;;5115985;28;20438;-59
2022/11/27 07:39:30;;;;;;;3.28;1.60;;;3.50;99.90;;;;;;5114334;28;20862;-58
2022/11/27 07:41:57;;;;;;;2.22;1.30;;;3.40;99.90;;;;;;5114342;28;20427;-59
2022/11/27 07:44:25;;;;;;;2.00;1.30;;;3.50;99.90;;;;;;5114315;28;20498;-59
2022/11/27 07:46:52;;;;;;;3.53;1.48;;;3.60;99.90;;;;;;5113703;28;20421;-59
2022/11/27 07:49:19;;;;;;;2.60;1.50;;;3.70;99.90;;;;;;5114816;28;20412;-58
2022/11/27 07:51:46;;;;;;;2.33;1.33;;;3.70;99.90;;;;;;5115313;28;20416;-59
2022/11/27 07:54:12;;;;;;;3.15;1.70;;;3.80;99.90;;;;;;5113196;28;20420;-59
2022/11/27 07:56:39;;;;;;;3.38;1.75;;;3.80;99.90;;;;;;5113298;28;20422;-59
2022/11/27 07:59:06;;;;;;;3.53;1.80;;;3.60;99.90;;;;;;5112658;28;20435;-59
2022/11/27 08:01:34;;;;;;;1.90;1.20;;;3.50;99.90;;;;;;5114237;28;20426;-59
2022/11/27 08:04:01;;;;;;;2.60;1.30;;;3.60;99.90;;;;;;5115519;28;20430;-59
2022/11/27 08:06:28;;;;;;;2.40;1.20;;;3.60;99.90;;;;;;5113818;28;20489;-59
2022/11/27 08:08:55;;;;;;;2.00;1.30;;;3.60;99.90;;;;;;5111833;28;20561;-60
2022/11/27 08:11:24;;;;;;;2.80;1.20;;;3.70;99.90;;;;;;5112407;28;20906;-59
2022/11/27 08:13:56;;;;;;;3.30;1.40;;;3.70;99.90;;;;;;5113776;28;20510;-59
2022/11/27 08:16:23;;;;;;;2.10;1.23;;;3.80;99.90;;;;;;5114149;28;20507;-59
2022/11/27 08:18:51;;;;;;;2.70;1.60;;;3.70;99.90;;;;;;5115187;28;21568;-59
2022/11/27 08:21:18;;;;;;;3.15;1.70;;;3.80;99.90;;;;;;5114912;28;20413;-59
2022/11/27 08:23:45;;;;;;;2.60;1.52;;;3.80;99.90;;;;;;5114773;28;20495;-59
2022/11/27 08:26:12;;;;;;;2.20;1.70;;;3.60;99.90;;;;;;5115181;28;20416;-58
2022/11/27 08:28:40;;;;;;;2.88;2.10;;;3.50;99.90;;;;;;5114032;28;20708;-58
2022/11/27 08:31:08;;;;;;;2.88;1.70;;;3.50;99.90;;;;;;5114570;28;20499;-58
2022/11/27 08:33:36;;;;;;;2.20;1.90;;;3.50;99.90;;;;;;5113341;28;20427;-58
2022/11/27 08:36:05;;;;;;;4.72;2.92;;;3.40;99.90;;;;;;5113027;28;20412;-58
2022/11/27 08:38:31;;;;;;;21.38;18.50;;;3.30;99.90;;;;;;5113984;28;20438;-58
2022/11/27 08:41:00;;;;;;;8.00;7.13;;;3.30;99.90;;;;;;5113905;28;20409;-59
2022/11/27 08:43:28;;;;;;;4.80;3.75;;;3.40;99.90;;;;;;5113517;28;20510;-58
2022/11/27 08:45:56;;;;;;;3.72;2.55;;;3.60;99.90;;;;;;5104227;28;20428;-58
2022/11/27 08:48:23;;;;;;;2.58;1.90;;;3.70;99.90;;;;;;5111437;28;20485;-58
2022/11/27 08:50:51;;;;;;;2.60;1.70;;;3.70;99.90;;;;;;5098622;28;20425;-59
2022/11/27 08:53:19;;;;;;;3.40;2.27;;;3.70;99.90;;;;;;5093660;28;20894;-59
2022/11/27 08:55:46;;;;;;;3.10;2.10;;;3.80;99.90;;;;;;5105552;28;20426;-59
2022/11/27 08:58:13;;;;;;;2.28;1.50;;;3.80;99.90;;;;;;5110592;28;20504;-59
2022/11/27 09:00:40;;;;;;;2.85;1.60;;;4.00;99.90;;;;;;5093642;28;20418;-59
2022/11/27 09:03:07;;;;;;;2.90;2.00;;;4.10;99.90;;;;;;5102578;28;20535;-58
2022/11/27 09:05:34;;;;;;;3.10;1.50;;;4.30;99.90;;;;;;5109241;28;20425;-58
2022/11/27 09:08:04;;;;;;;4.28;1.85;;;4.50;99.90;;;;;;5103007;28;20524;-58
2022/11/27 09:10:32;;;;;;;2.43;1.60;;;4.70;99.90;;;;;;5093000;28;21038;-58
2022/11/27 09:12:59;;;;;;;2.60;1.35;;;4.90;99.90;;;;;;5093349;28;20819;-58
2022/11/27 09:15:26;;;;;;;3.78;1.30;;;5.10;98.30;;;;;;5093625;28;20512;-58
2022/11/27 09:17:53;;;;;;;4.35;1.80;;;5.00;90.10;;;;;;5108179;28;20431;-58
2022/11/27 09:20:20;;;;;;;2.78;1.50;;;5.10;96.60;;;;;;5108577;28;20868;-59
2022/11/27 09:22:46;;;;;;;1.95;1.40;;;5.20;94.20;;;;;;5096954;28;20524;-59
2022/11/27 09:25:13;;;;;;;2.53;1.90;;;5.20;95.00;;;;;;5100358;28;20792;-58
2022/11/27 09:27:41;;;;;;;2.30;1.40;;;5.20;90.60;;;;;;5108178;28;20428;-58
2022/11/27 09:30:09;;;;;;;2.78;1.83;;;5.10;98.80;;;;;;5115892;28;20416;-58
2022/11/27 09:32:36;;;;;;;2.20;1.40;;;5.20;97.60;;;;;;5096935;28;20508;-58
2022/11/27 09:35:04;;;;;;;2.80;1.30;;;5.20;97.20;;;;;;5109409;28;20492;-58
2022/11/27 09:37:30;;;;;;;3.30;1.30;;;5.30;99.90;;;;;;5118441;28;20731;-59
2022/11/27 09:39:58;;;;;;;2.30;1.20;;;5.40;98.90;;;;;;5115086;28;20426;-59
2022/11/27 09:42:39;;;;;;;1.70;1.10;;;5.50;88.90;;;;;;5097123;28;20659;-58
2022/11/27 09:45:15;;;;;;;2.20;1.20;;;5.60;76.90;;;;;;5114755;28;21191;-59
2022/11/27 09:47:46;;;;;;;1.65;1.10;;;5.70;88.10;;;;;;5108900;28;20459;-59
2022/11/27 09:50:19;;;;;;;1.60;1.10;;;5.80;41.60;;;;;;5097308;28;20523;-59
2022/11/27 09:52:49;;;;;;;1.70;1.00;;;5.80;37.90;;;;;;5112773;28;20434;-59
2022/11/27 09:55:23;;;;;;;1.63;1.00;;;5.80;38.30;;;;;;5098599;28;20429;-59
2022/11/27 09:57:57;;;;;;;2.15;1.10;;;5.80;39.10;;;;;;5097776;28;20508;-59
2022/11/27 10:00:26;;;;;;;1.88;1.10;;;5.80;49.10;;;;;;5096793;28;20432;-59
2022/11/27 10:02:53;;;;;;;1.80;1.10;;;5.90;45.80;;;;;;5110646;28;20518;-59
2022/11/27 10:05:23;;;;;;;2.70;1.20;;;5.80;64.60;;;;;;5108520;28;20426;-58
2022/11/27 10:08:21;;;;;;;3.13;2.13;;;6.10;68.80;;;;;;5097376;28;20524;-58
2022/11/27 10:11:02;;;;;;;3.47;2.90;;;6.30;56.40;;;;;;5115455;28;20497;-60
2022/11/27 10:13:41;;;;;;;2.85;2.55;;;6.60;21.30;;;;;;5109105;28;20429;-59
2022/11/27 10:16:19;;;;;;;3.10;2.80;;;6.60;1.00;;;;;;5099699;28;20428;-59
2022/11/27 10:18:51;;;;;;;2.72;1.92;;;6.70;1.00;;;;;;5115895;28;20519;-59
2022/11/27 10:21:35;;;;;;;2.70;1.50;;;6.70;1.00;;;;;;5114417;28;20495;-59
2022/11/27 10:24:12;;;;;;;2.63;2.22;;;6.50;1.00;;;;;;5115962;28;20427;-59
2022/11/27 10:26:43;;;;;;;3.35;2.25;;;6.50;1.00;;;;;;5116828;28;20819;-58
2022/11/27 10:29:21;;;;;;;2.80;2.47;;;6.40;1.00;;;;;;5112362;28;20434;-59
2022/11/27 10:31:56;;;;;;;1.90;1.40;;;6.10;8.90;;;;;;5116399;28;20829;-59
2022/11/27 10:34:34;;;;;;;2.20;1.60;;;6.10;38.00;;;;;;5110928;28;20839;-61
2022/11/27 10:37:05;;;;;;;3.15;1.60;;;6.20;57.00;;;;;;5114986;28;20424;-60
2022/11/27 10:39:39;;;;;;;2.50;1.20;;;6.40;15.80;;;;;;5117182;28;20428;-60
2022/11/27 10:42:12;;;;;;;2.00;1.10;;;6.40;15.30;;;;;;5110770;28;20528;-60
2022/11/27 10:44:42;;;;;;;1.95;1.40;;;6.40;27.20;;;;;;5110146;28;20428;-60
2022/11/27 10:47:13;;;;;;;3.20;2.03;;;6.60;25.40;;;;;;5105522;28;20431;-59
2022/11/27 10:49:42;;;;;;;3.05;2.75;;;6.80;1.00;;;;;;5113254;28;20420;-58
2022/11/27 10:52:14;;;;;;;3.70;2.70;;;7.00;1.00;;;;;;5110547;28;20508;-59
2022/11/27 10:54:42;;;;;;;3.80;2.55;;;7.10;1.00;;;;;;5112142;28;20684;-59
2022/11/27 10:57:34;;;;;;;3.10;2.80;;;7.10;1.00;;;;;;5111721;28;20508;-60
2022/11/27 11:00:09;;;;;;;3.50;2.40;;;7.10;1.00;;;;;;5113088;28;20511;-59
2022/11/27 11:02:39;;;;;;;3.05;2.42;;;7.00;1.00;;;;;;5103530;28;20428;-61
2022/11/27 11:05:19;;;;;;;3.35;2.40;;;7.10;1.00;;;;;;5114372;28;20461;-60
2022/11/27 11:07:56;;;;;;;3.20;1.50;;;7.20;1.00;;;;;;5114465;28;20431;-60
2022/11/27 11:10:28;;;;;;;2.05;1.60;;;7.20;1.00;;;;;;5112943;28;20503;-60
2022/11/27 11:13:17;;;;;;;3.10;1.53;;;7.30;1.00;;;;;;5114773;28;20523;-61
2022/11/27 11:15:53;;;;;;;2.22;1.70;;;7.50;1.00;;;;;;5112150;28;20508;-60
2022/11/27 11:18:24;;;;;;;1.85;1.30;;;7.70;1.00;;;;;;5114125;28;20430;-60
2022/11/27 11:20:53;;;;;;;1.90;1.10;;;7.50;1.00;;;;;;5112976;28;20793;-60
2022/11/27 11:23:25;;;;;;;1.50;1.00;;;7.60;1.00;;;;;;5112456;28;20436;-60
2022/11/27 11:25:55;;;;;;;1.65;1.10;;;7.60;1.00;;;;;;5114285;28;20455;-60
2022/11/27 11:28:23;;;;;;;2.05;0.90;;;7.70;1.00;;;;;;5115322;28;20839;-60
2022/11/27 11:30:58;;;;;;;1.30;0.90;;;7.70;1.00;;;;;;5114519;28;20412;-60
2022/11/27 11:33:27;;;;;;;1.50;0.90;;;7.60;1.00;;;;;;5115177;28;20431;-60
2022/11/27 11:35:57;;;;;;;1.30;0.90;;;7.60;1.00;;;;;;5116318;28;20423;-60
2022/11/27 11:38:29;;;;;;;1.10;0.90;;;7.60;1.00;;;;;;5113604;28;20447;-60
2022/11/27 11:41:02;;;;;;;1.33;0.80;;;7.60;1.00;;;;;;5114083;28;20420;-60
2022/11/27 11:43:31;;;;;;;1.20;0.90;;;7.70;1.00;;;;;;5111754;28;20436;-60
2022/11/27 11:46:22;;;;;;;1.60;1.00;;;7.80;1.00;;;;;;5113556;28;20703;-60
2022/11/27 11:49:02;;;;;;;1.60;0.80;;;7.80;1.00;;;;;;5113998;28;20731;-60
2022/11/27 11:51:51;;;;;;;1.10;0.80;;;7.90;1.00;;;;;;5112714;28;20416;-60
2022/11/27 11:54:31;;;;;;;1.60;1.30;;;7.90;1.00;;;;;;5095183;28;20792;-60
2022/11/27 11:57:02;;;;;;;1.88;1.02;;;8.00;1.00;;;;;;5112433;28;20416;-60
2022/11/27 11:59:38;;;;;;;2.60;0.98;;;8.20;99.90;;;;;;5112460;28;20531;-60
2022/11/27 12:02:27;;;;;;;2.88;1.50;;;8.40;99.90;;;;;;5110699;28;20919;-60
2022/11/27 12:05:11;;;;;;;3.00;1.90;;;8.50;99.90;;;;;;5109647;28;20591;-60
2022/11/27 12:07:53;;;;;;;1.80;1.48;;;8.60;99.90;;;;;;5093379;28;20709;-61
2022/11/27 12:10:26;;;;;;;2.80;1.80;;;8.60;1.00;;;;;;5091946;28;20425;-60
2022/11/27 12:13:04;;;;;;;3.50;2.10;;;8.70;1.00;;;;;;5110811;28;20501;-61
2022/11/27 12:15:37;;;;;;;3.28;1.80;;;8.80;1.00;;;;;;5113012;28;20535;-61
2022/11/27 12:18:15;;;;;;;2.95;1.92;;;8.90;1.00;;;;;;5114795;28;20430;-61
2022/11/27 12:20:55;;;;;;;2.80;1.57;;;9.00;99.90;;;;;;5113464;28;20424;-62
2022/11/27 12:23:44;;;;;;;2.50;1.40;;;9.10;99.90;;;;;;5114783;28;20439;-62
2022/11/27 12:26:19;;;;;;;3.10;1.42;;;9.10;99.90;;;;;;5100821;28;21079;-61
2022/11/27 12:29:10;;;;;;;2.03;1.20;;;9.00;99.90;;;;;;5112336;28;20428;-62
2022/11/27 12:31:50;;;;;;;2.20;1.30;;;8.90;1.00;;;;;;5098473;28;20523;-61
2022/11/27 12:34:25;;;;;;;1.40;0.90;;;8.80;99.90;;;;;;5112667;28;20443;-61
2022/11/27 12:37:10;;;;;;;1.38;0.88;;;8.60;1.00;;;;;;5112222;28;20738;-60
2022/11/27 12:39:55;;;;;;;3.03;1.00;;;8.60;99.90;;;;;;5113435;28;20516;-62
2022/11/27 12:42:27;;;;;;;1.60;0.80;;;8.50;99.90;;;;;;5114298;28;20511;-62
2022/11/27 12:45:00;;;;;;;1.70;0.80;;;8.50;99.90;;;;;;5114710;28;20503;-63
2022/11/27 12:47:32;;;;;;;1.38;0.70;;;8.40;99.90;;;;;;5113885;28;20801;-62
2022/11/27 12:50:03;;;;;;;0.90;0.70;;;8.40;99.90;;;;;;5114275;28;20416;-61
2022/11/27 12:52:34;;;;;;;1.10;0.65;;;8.30;99.90;;;;;;5113393;28;20424;-61
2022/11/27 12:55:05;;;;;;;1.17;0.77;;;8.20;99.90;;;;;;5112684;28;20454;-62
2022/11/27 12:57:39;;;;;;;1.10;0.70;;;8.10;9.70;;;;;;5114744;28;20522;-63
2022/11/27 13:00:13;;;;;;;1.58;0.80;;;8.10;99.90;;;;;;5116054;28;20428;-61
2022/11/27 13:02:46;;;;;;;1.38;0.80;;;8.10;1.00;;;;;;5099218;28;20514;-61
2022/11/27 13:05:19;;;;;;;1.40;0.90;;;8.10;1.00;;;;;;5116771;28;20423;-62
2022/11/27 13:07:52;;;;;;;1.20;0.80;;;8.10;1.00;;;;;;5110869;28;20434;-62
2022/11/27 13:10:25;;;;;;;2.70;1.10;;;8.10;99.90;;;;;;5095381;28;20475;-62
2022/11/27 13:13:02;;;;;;;2.10;0.90;;;8.10;29.30;;;;;;5110263;28;20779;-61
2022/11/27 13:15:34;;;;;;;1.13;0.70;;;8.10;1.00;;;;;;5117249;28;20412;-63